createdAt,value
2023-02-11T00:00:19.207Z,4.69
2023-02-11T00:03:04.069Z,4.71
2023-02-11T00:06:04.110Z,4.75
2023-02-11T00:08:49.766Z,4.78
2023-02-11T00:11:34.884Z,4.71
2023-02-11T00:14:19.922Z,4.52
2023-02-11T00:17:04.655Z,4.54
2023-02-11T00:19:50.998Z,4.53
2023-02-11T00:22:36.207Z,4.63
2023-02-11T00:25:21.312Z,4.81
2023-02-11T00:28:06.376Z,5.22
2023-02-11T00:30:56.483Z,5.37
2023-02-11T00:33:41.739Z,5.54
2023-02-11T00:36:28.800Z,5.88
2023-02-11T00:39:13.895Z,5.97
2023-02-11T00:41:58.969Z,5.98
2023-02-11T00:44:44.242Z,6.04
2023-02-11T00:47:29.248Z,6.09
2023-02-11T00:50:14.345Z,6.18
2023-02-11T00:52:59.009Z,6.13
2023-02-11T00:55:44.228Z,6.13
2023-02-11T00:58:29.485Z,6.05
2023-02-11T01:01:14.631Z,5.96
2023-02-11T01:03:59.418Z,5.88
2023-02-11T01:06:44.625Z,5.86
2023-02-11T01:09:29.665Z,5.88
2023-02-11T01:12:14.859Z,5.92
2023-02-11T01:14:59.752Z,5.99
2023-02-11T01:17:45.115Z,5.95
2023-02-11T01:20:30.281Z,5.88
2023-02-11T01:23:15.390Z,5.88
2023-02-11T01:26:00.443Z,5.73
2023-02-11T01:28:45.707Z,5.62
2023-02-11T01:31:31.589Z,5.63
2023-02-11T01:34:17.051Z,5.59
2023-02-11T01:37:01.934Z,5.47
2023-02-11T01:39:47.172Z,5.38
2023-02-11T01:42:33.149Z,5.26
2023-02-11T01:45:46.912Z,5.30
2023-02-11T01:48:38.877Z,5.26
2023-02-11T01:51:32.784Z,5.36
2023-02-11T01:54:40.384Z,5.35
2023-02-11T01:57:29.190Z,5.30
2023-02-11T02:00:20.775Z,5.28
2023-02-11T02:03:16.872Z,5.41
2023-02-11T02:06:16.453Z,5.45
2023-02-11T02:09:06.683Z,5.56
2023-02-11T02:11:52.212Z,5.55
2023-02-11T02:14:41.102Z,5.55
2023-02-11T02:17:44.477Z,5.65
2023-02-11T02:20:48.384Z,5.66
2023-02-11T02:23:39.490Z,5.64
2023-02-11T02:26:37.409Z,5.62
2023-02-11T02:29:34.533Z,5.64
2023-02-11T02:32:41.399Z,5.61
2023-02-11T02:35:40.092Z,5.56
2023-02-11T02:38:25.233Z,5.59
2023-02-11T02:41:13.886Z,5.59
2023-02-11T02:43:59.017Z,5.60
2023-02-11T02:46:44.368Z,5.57
2023-02-11T02:49:29.545Z,5.55
2023-02-11T02:52:42.649Z,5.57
2023-02-11T02:56:01.736Z,5.52
2023-02-11T02:58:53.223Z,5.56
2023-02-11T03:02:03.276Z,5.47
2023-02-11T03:05:11.929Z,5.41
2023-02-11T03:08:05.431Z,5.34
2023-02-11T03:10:53.137Z,5.32
2023-02-11T03:13:40.211Z,5.25
2023-02-11T03:16:28.076Z,5.26
2023-02-11T03:19:17.939Z,5.19
2023-02-11T03:22:07.529Z,5.23
2023-02-11T03:24:53.352Z,5.17
2023-02-11T03:27:57.663Z,5.08
2023-02-11T03:30:53.237Z,5.03
2023-02-11T03:34:06.344Z,5.07
2023-02-11T03:36:56.900Z,5.11
2023-02-11T03:40:06.262Z,5.13
2023-02-11T03:42:59.267Z,5.20
2023-02-11T03:45:48.313Z,5.21
2023-02-11T03:48:41.794Z,5.21
2023-02-11T03:51:28.947Z,5.19
2023-02-11T03:54:18.481Z,5.18
2023-02-11T03:57:03.919Z,5.15
2023-02-11T03:59:53.843Z,5.15
2023-02-11T04:02:39.954Z,5.13
2023-02-11T04:05:24.754Z,5.13
2023-02-11T04:08:10.306Z,5.11
2023-02-11T04:10:55.356Z,5.06
2023-02-11T04:13:40.533Z,5.03
2023-02-11T04:16:25.428Z,4.98
2023-02-11T04:19:10.537Z,4.99
2023-02-11T04:21:56.826Z,5.03
2023-02-11T04:24:43.874Z,5.07
2023-02-11T04:27:28.738Z,5.05
2023-02-11T04:30:14.280Z,5.05
2023-02-11T04:32:59.310Z,5.07
2023-02-11T04:35:44.960Z,5.08
2023-02-11T04:38:30.044Z,5.03
2023-02-11T04:41:15.206Z,5.05
2023-02-11T04:43:59.926Z,5.09
2023-02-11T04:46:45.200Z,5.08
2023-02-11T04:49:30.174Z,5.07
2023-02-11T04:52:15.353Z,5.07
2023-02-11T04:55:00.500Z,5.03
2023-02-11T04:57:45.538Z,5.05
2023-02-11T05:00:30.410Z,5.07
2023-02-11T05:03:16.177Z,5.05
2023-02-11T05:06:01.367Z,5.08
2023-02-11T05:08:46.319Z,5.09
2023-02-11T05:11:31.342Z,5.11
2023-02-11T05:14:16.254Z,5.11
2023-02-11T05:17:01.105Z,5.15
2023-02-11T05:19:46.293Z,5.12
2023-02-11T05:22:31.111Z,5.14
2023-02-11T05:25:16.353Z,5.11
2023-02-11T05:28:01.743Z,5.11
2023-02-11T05:30:46.989Z,5.12
2023-02-11T05:33:31.830Z,5.12
2023-02-11T05:36:18.145Z,5.07
2023-02-11T05:39:03.373Z,5.09
2023-02-11T05:41:48.213Z,5.07
2023-02-11T05:44:32.980Z,5.09
2023-02-11T05:47:18.167Z,5.07
2023-02-11T05:50:03.173Z,5.03
2023-02-11T05:52:48.088Z,5.02
2023-02-11T05:55:33.542Z,5.02
2023-02-11T05:58:18.827Z,5.03
2023-02-11T06:01:03.758Z,5.00
2023-02-11T06:03:49.962Z,5.00
2023-02-11T06:06:34.811Z,4.96
2023-02-11T06:09:19.728Z,4.98
2023-02-11T06:12:04.946Z,4.98
2023-02-11T06:14:50.099Z,4.99
2023-02-11T06:17:36.458Z,4.99
2023-02-11T06:20:21.587Z,5.05
2023-02-11T06:23:06.539Z,5.05
2023-02-11T06:25:53.001Z,5.08
2023-02-11T06:28:41.865Z,5.09
2023-02-11T06:31:27.921Z,5.11
2023-02-11T06:34:13.174Z,5.11
2023-02-11T06:36:57.950Z,5.09
2023-02-11T06:39:45.247Z,5.08
2023-02-11T06:42:30.090Z,5.07
2023-02-11T06:45:15.345Z,5.07
2023-02-11T06:48:00.538Z,5.09
2023-02-11T06:50:45.647Z,5.10
2023-02-11T06:53:31.254Z,5.07
2023-02-11T06:56:21.133Z,5.07
2023-02-11T06:59:05.960Z,5.04
2023-02-11T07:01:51.238Z,5.02
2023-02-11T07:04:36.070Z,5.01
2023-02-11T07:07:21.275Z,5.07
2023-02-11T07:10:06.567Z,5.11
2023-02-11T07:12:51.654Z,5.08
2023-02-11T07:15:37.904Z,5.04
2023-02-11T07:18:22.929Z,5.08
2023-02-11T07:21:10.135Z,5.09
2023-02-11T07:23:55.307Z,5.14
2023-02-11T07:26:40.691Z,5.19
2023-02-11T07:29:26.029Z,5.20
2023-02-11T07:32:11.248Z,5.22
2023-02-11T07:34:56.175Z,5.26
2023-02-11T07:37:41.600Z,5.29
2023-02-11T07:40:26.481Z,5.33
2023-02-11T07:43:11.595Z,5.33
2023-02-11T07:45:56.461Z,5.41
2023-02-11T07:48:41.706Z,5.41
2023-02-11T07:51:29.358Z,5.47
2023-02-11T07:54:14.046Z,5.52
2023-02-11T07:56:59.032Z,5.51
2023-02-11T07:59:44.018Z,5.57
2023-02-11T08:02:28.967Z,5.56
2023-02-11T08:05:13.958Z,5.57
2023-02-11T08:07:58.883Z,5.61
2023-02-11T08:10:43.913Z,5.59
2023-02-11T08:13:28.805Z,5.60
2023-02-11T08:16:26.601Z,5.62
2023-02-11T08:19:16.502Z,5.60
2023-02-11T08:22:01.798Z,5.64
2023-02-11T08:24:46.620Z,5.66
2023-02-11T08:27:31.621Z,5.71
2023-02-11T08:30:16.730Z,5.70
2023-02-11T08:33:02.159Z,5.75
2023-02-11T08:35:47.303Z,5.76
2023-02-11T08:38:32.134Z,5.77
2023-02-11T08:41:18.021Z,5.81
2023-02-11T08:44:03.674Z,5.90
2023-02-11T08:46:50.052Z,5.92
2023-02-11T08:49:35.052Z,5.94
2023-02-11T08:52:19.993Z,5.93
2023-02-11T08:55:05.290Z,5.92
2023-02-11T08:57:50.720Z,6.02
2023-02-11T09:00:36.296Z,6.07
2023-02-11T09:03:21.141Z,6.14
2023-02-11T09:06:08.670Z,6.14
2023-02-11T09:08:57.146Z,6.22
2023-02-11T09:11:44.509Z,6.16
2023-02-11T09:14:29.683Z,6.15
2023-02-11T09:17:14.877Z,6.12
2023-02-11T09:19:59.794Z,6.11
2023-02-11T09:22:44.958Z,6.15
2023-02-11T09:25:29.909Z,6.19
2023-02-11T09:28:14.991Z,6.25
2023-02-11T09:31:05.440Z,6.22
2023-02-11T09:33:53.731Z,6.25
2023-02-11T09:36:40.659Z,6.27
2023-02-11T09:39:26.672Z,6.36
2023-02-11T09:42:43.711Z,6.41
2023-02-11T09:45:30.215Z,6.46
2023-02-11T09:48:21.381Z,6.40
2023-02-11T09:51:16.318Z,6.47
2023-02-11T09:54:09.659Z,6.57
2023-02-11T09:56:54.464Z,6.52
2023-02-11T09:59:40.188Z,6.52
2023-02-11T10:02:52.302Z,6.58
2023-02-11T10:05:54.818Z,6.57
2023-02-11T10:09:13.978Z,6.63
2023-02-11T10:11:59.037Z,6.67
2023-02-11T10:15:14.782Z,6.72
2023-02-11T10:18:06.614Z,6.76
2023-02-11T10:21:17.655Z,6.80
2023-02-11T10:24:06.132Z,6.78
2023-02-11T10:26:51.752Z,6.78
2023-02-11T10:29:43.317Z,6.76
2023-02-11T10:32:59.612Z,6.83
2023-02-11T10:35:45.566Z,6.75
2023-02-11T10:38:30.717Z,6.84
2023-02-11T10:41:32.460Z,6.90
2023-02-11T10:44:35.711Z,7.01
2023-02-11T10:47:23.905Z,7.07
2023-02-11T10:50:29.736Z,7.01
2023-02-11T10:53:20.857Z,6.84
2023-02-11T10:56:07.827Z,6.96
2023-02-11T10:59:05.392Z,7.01
2023-02-11T11:01:53.720Z,7.00
2023-02-11T11:04:42.209Z,6.94
2023-02-11T11:07:31.380Z,6.90
2023-02-11T11:10:29.409Z,6.93
2023-02-11T11:13:25.309Z,6.95
2023-02-11T11:16:13.644Z,6.97
2023-02-11T11:19:07.937Z,7.02
2023-02-11T11:21:54.644Z,6.89
2023-02-11T11:24:44.729Z,6.87
2023-02-11T11:27:30.131Z,6.87
2023-02-11T11:30:17.215Z,6.94
2023-02-11T11:33:02.493Z,6.95
2023-02-11T11:36:04.874Z,6.91
2023-02-11T11:39:04.346Z,6.94
2023-02-11T11:41:58.320Z,6.99
2023-02-11T11:45:00.267Z,6.93
2023-02-11T11:47:54.136Z,7.01
2023-02-11T11:50:45.352Z,6.98
2023-02-11T11:53:56.126Z,6.98
2023-02-11T11:57:10.162Z,7.00
2023-02-11T11:59:55.722Z,6.92
2023-02-11T12:03:06.802Z,6.90
2023-02-11T12:06:14.049Z,6.90
2023-02-11T12:09:16.314Z,6.97
2023-02-11T12:12:32.484Z,6.96
2023-02-11T12:15:36.198Z,6.98
2023-02-11T12:18:50.971Z,6.97
2023-02-11T12:21:41.490Z,7.01
2023-02-11T12:25:07.841Z,7.00
2023-02-11T12:28:02.993Z,7.12
2023-02-11T12:30:57.679Z,7.18
2023-02-11T12:34:36.699Z,7.17
2023-02-11T12:38:03.284Z,7.18
2023-02-11T12:40:54.180Z,7.11
2023-02-11T12:43:41.914Z,7.15
2023-02-11T12:46:55.670Z,7.18
2023-02-11T12:50:19.161Z,7.22
2023-02-11T12:53:22.527Z,7.27
2023-02-11T12:56:24.040Z,7.21
2023-02-11T12:59:29.034Z,7.20
2023-02-11T13:02:40.746Z,7.12
2023-02-11T13:05:37.866Z,7.06
2023-02-11T13:08:30.454Z,7.11
2023-02-11T13:11:24.295Z,7.11
2023-02-11T13:14:16.974Z,7.15
2023-02-11T13:17:11.009Z,7.17
2023-02-11T13:20:05.543Z,7.14
2023-02-11T13:23:07.547Z,7.10
2023-02-11T13:26:05.051Z,7.04
2023-02-11T13:28:56.632Z,7.11
2023-02-11T13:31:41.769Z,7.10
2023-02-11T13:34:46.880Z,7.07
2023-02-11T13:37:38.526Z,7.05
2023-02-11T13:40:34.108Z,6.99
2023-02-11T13:43:25.283Z,7.01
2023-02-11T13:46:14.897Z,7.00
2023-02-11T13:49:00.190Z,7.00
2023-02-11T13:51:45.188Z,6.97
2023-02-11T13:54:34.430Z,7.00
2023-02-11T13:57:19.524Z,7.00
2023-02-11T14:00:33.108Z,7.06
2023-02-11T14:03:53.183Z,7.01
2023-02-11T14:06:57.149Z,7.06
2023-02-11T14:09:42.374Z,7.02
2023-02-11T14:12:34.704Z,7.09
2023-02-11T14:15:21.126Z,7.09
2023-02-11T14:18:36.021Z,7.06
2023-02-11T14:21:30.334Z,7.14
2023-02-11T14:24:18.505Z,7.16
2023-02-11T14:27:21.264Z,7.20
2023-02-11T14:30:09.347Z,7.24
2023-02-11T14:33:17.325Z,7.29
2023-02-11T14:36:12.825Z,7.23
2023-02-11T14:39:00.602Z,7.30
2023-02-11T14:41:48.663Z,7.35
2023-02-11T14:44:34.252Z,7.28
2023-02-11T14:47:23.676Z,7.28
2023-02-11T14:50:24.433Z,7.31
2023-02-11T14:53:18.686Z,7.33
2023-02-11T14:56:15.661Z,7.28
2023-02-11T14:59:02.520Z,7.28
2023-02-11T15:01:54.360Z,7.32
2023-02-11T15:04:41.981Z,7.25
2023-02-11T15:07:27.259Z,7.33
2023-02-11T15:10:37.939Z,7.33
2023-02-11T15:13:27.626Z,7.33
2023-02-11T15:16:18.288Z,7.36
2023-02-11T15:19:07.382Z,7.42
2023-02-11T15:21:53.540Z,7.42
2023-02-11T15:24:39.990Z,7.38
2023-02-11T15:27:25.714Z,7.37
2023-02-11T15:30:24.807Z,7.41
2023-02-11T15:33:22.273Z,7.34
2023-02-11T15:36:11.919Z,7.38
2023-02-11T15:39:18.157Z,7.40
2023-02-11T15:42:31.426Z,7.40
2023-02-11T15:45:25.752Z,7.38
2023-02-11T15:48:17.518Z,7.40
2023-02-11T15:51:18.642Z,7.38
2023-02-11T15:54:07.933Z,7.36
2023-02-11T15:56:58.750Z,7.37
2023-02-11T15:59:50.143Z,7.31
2023-02-11T16:02:37.224Z,7.30
2023-02-11T16:05:37.719Z,7.31
2023-02-11T16:08:32.727Z,7.28
2023-02-11T16:11:31.616Z,7.26
2023-02-11T16:14:37.020Z,7.24
2023-02-11T16:17:27.218Z,7.22
2023-02-11T16:20:21.198Z,7.17
2023-02-11T16:23:07.456Z,7.16
2023-02-11T16:25:59.617Z,7.13
2023-02-11T16:28:44.659Z,7.12
2023-02-11T16:31:38.995Z,7.09
2023-02-11T16:34:25.386Z,7.05
2023-02-11T16:37:10.490Z,7.05
2023-02-11T16:39:56.716Z,7.03
2023-02-11T16:42:41.580Z,7.03
2023-02-11T16:45:26.748Z,7.04
2023-02-11T16:48:16.102Z,7.03
2023-02-11T16:51:00.954Z,7.00
2023-02-11T16:53:46.097Z,6.99
2023-02-11T16:56:31.027Z,6.99
2023-02-11T16:59:16.219Z,6.98
2023-02-11T17:02:01.116Z,6.98
2023-02-11T17:04:46.714Z,6.99
2023-02-11T17:07:32.364Z,6.98
2023-02-11T17:10:23.102Z,6.98
2023-02-11T17:13:08.113Z,6.95
2023-02-11T17:15:53.843Z,6.95
2023-02-11T17:18:39.118Z,6.93
2023-02-11T17:21:27.569Z,6.94
2023-02-11T17:24:14.933Z,6.96
2023-02-11T17:27:00.069Z,6.99
2023-02-11T17:29:45.214Z,6.98
2023-02-11T17:32:30.075Z,6.99
2023-02-11T17:35:15.265Z,7.00
2023-02-11T17:38:01.316Z,7.01
2023-02-11T17:40:46.039Z,7.01
2023-02-11T17:43:31.770Z,7.01
2023-02-11T17:46:17.344Z,6.98
2023-02-11T17:49:03.579Z,6.97
2023-02-11T17:51:48.362Z,6.95
2023-02-11T17:54:33.412Z,6.95
2023-02-11T17:57:18.286Z,6.94
2023-02-11T18:00:04.901Z,6.93
2023-02-11T18:02:49.641Z,6.93
2023-02-11T18:05:37.554Z,6.93
2023-02-11T18:08:22.729Z,6.91
2023-02-11T18:11:12.154Z,6.95
2023-02-11T18:14:01.778Z,6.95
2023-02-11T18:16:50.290Z,6.93
2023-02-11T18:19:36.483Z,6.93
2023-02-11T18:22:21.965Z,6.95
2023-02-11T18:25:08.581Z,6.94
2023-02-11T18:27:53.425Z,6.93
2023-02-11T18:30:38.382Z,6.89
2023-02-11T18:33:23.321Z,6.93
2023-02-11T18:36:14.432Z,6.95
2023-02-11T18:39:00.547Z,6.92
2023-02-11T18:41:46.451Z,6.92
2023-02-11T18:44:31.593Z,6.89
2023-02-11T18:47:16.910Z,6.88
2023-02-11T18:50:01.804Z,6.90
2023-02-11T18:52:46.894Z,6.89
2023-02-11T18:55:31.575Z,6.88
2023-02-11T18:58:17.042Z,6.86
2023-02-11T19:01:02.186Z,6.83
2023-02-11T19:03:48.121Z,6.80
2023-02-11T19:06:36.384Z,6.77
2023-02-11T19:09:21.432Z,6.78
2023-02-11T19:12:07.847Z,6.77
2023-02-11T19:14:53.021Z,6.77
2023-02-11T19:17:38.122Z,6.75
2023-02-11T19:20:22.990Z,6.78
2023-02-11T19:23:08.120Z,6.76
2023-02-11T19:25:53.155Z,6.75
2023-02-11T19:28:39.058Z,6.74
2023-02-11T19:31:24.503Z,6.72
2023-02-11T19:34:11.070Z,6.70
2023-02-11T19:36:56.669Z,6.72
2023-02-11T19:39:43.227Z,6.69
2023-02-11T19:42:28.159Z,6.68
2023-02-11T19:45:13.228Z,6.67
2023-02-11T19:47:58.303Z,6.66
2023-02-11T19:50:43.383Z,6.63
2023-02-11T19:53:28.240Z,6.60
2023-02-11T19:56:14.891Z,6.56
2023-02-11T19:59:02.472Z,6.55
2023-02-11T20:01:48.892Z,6.58
2023-02-11T20:04:33.828Z,6.59
2023-02-11T20:07:18.712Z,6.63
2023-02-11T20:10:03.887Z,6.64
2023-02-11T20:12:48.718Z,6.63
2023-02-11T20:15:33.619Z,6.61
2023-02-11T20:18:18.580Z,6.60
2023-02-11T20:21:10.811Z,6.59
2023-02-11T20:23:56.200Z,6.59
2023-02-11T20:26:42.321Z,6.56
2023-02-11T20:29:30.955Z,6.55
2023-02-11T20:32:16.098Z,6.55
2023-02-11T20:35:00.846Z,6.54
2023-02-11T20:37:46.117Z,6.57
2023-02-11T20:40:31.003Z,6.57
2023-02-11T20:43:16.530Z,6.56
2023-02-11T20:46:03.617Z,6.55
2023-02-11T20:48:48.342Z,6.56
2023-02-11T20:51:34.454Z,6.56
2023-02-11T20:54:21.049Z,6.56
2023-02-11T20:57:07.074Z,6.56
2023-02-11T20:59:52.415Z,6.59
2023-02-11T21:02:37.338Z,6.60
2023-02-11T21:05:22.382Z,6.63
2023-02-11T21:08:07.287Z,6.61
2023-02-11T21:10:52.415Z,6.60
2023-02-11T21:13:38.320Z,6.61
2023-02-11T21:16:23.558Z,6.59
2023-02-11T21:19:08.571Z,6.62
2023-02-11T21:21:55.098Z,6.60
2023-02-11T21:24:39.875Z,6.61
2023-02-11T21:27:30.924Z,6.59
2023-02-11T21:30:17.282Z,6.62
2023-02-11T21:33:02.275Z,6.62
2023-02-11T21:35:47.876Z,6.64
2023-02-11T21:38:33.105Z,6.65
2023-02-11T21:41:21.683Z,6.67
2023-02-11T21:44:06.534Z,6.66
2023-02-11T21:46:51.572Z,6.67
2023-02-11T21:49:36.553Z,6.69
2023-02-11T21:52:21.798Z,6.69
2023-02-11T21:55:06.904Z,6.70
2023-02-11T21:57:52.213Z,6.67
2023-02-11T22:00:37.527Z,6.66
2023-02-11T22:03:22.806Z,6.67
2023-02-11T22:06:13.061Z,6.66
2023-02-11T22:08:59.031Z,6.65
2023-02-11T22:11:44.227Z,6.67
2023-02-11T22:14:32.171Z,6.66
2023-02-11T22:17:17.586Z,6.67
2023-02-11T22:20:02.679Z,6.66
2023-02-11T22:22:47.815Z,6.67
2023-02-11T22:25:32.624Z,6.73
2023-02-11T22:28:17.835Z,6.76
2023-02-11T22:31:02.858Z,6.78
2023-02-11T22:33:48.798Z,6.80
2023-02-11T22:36:39.309Z,6.80
2023-02-11T22:39:24.473Z,6.76
2023-02-11T22:42:09.422Z,6.75
2023-02-11T22:44:54.609Z,6.73
2023-02-11T22:47:39.426Z,6.74
2023-02-11T22:50:24.557Z,6.74
2023-02-11T22:53:09.609Z,6.73
2023-02-11T22:55:55.267Z,6.73
2023-02-11T22:58:40.620Z,6.72
2023-02-11T23:01:26.256Z,6.72
2023-02-11T23:04:13.643Z,6.72
2023-02-11T23:06:58.864Z,6.72
2023-02-11T23:09:43.886Z,6.74
2023-02-11T23:12:28.706Z,6.71
2023-02-11T23:15:13.985Z,6.68
2023-02-11T23:17:59.202Z,6.67
2023-02-11T23:20:45.013Z,6.68
2023-02-11T23:23:29.960Z,6.69
2023-02-11T23:26:17.923Z,6.68
2023-02-11T23:29:03.865Z,6.69
2023-02-11T23:31:49.627Z,6.70
2023-02-11T23:34:34.666Z,6.63
2023-02-11T23:37:19.897Z,6.66
2023-02-11T23:40:05.198Z,6.67
2023-02-11T23:42:50.386Z,6.60
2023-02-11T23:45:35.312Z,6.57
2023-02-11T23:48:20.389Z,6.59
2023-02-11T23:51:05.372Z,6.51
2023-02-11T23:53:53.985Z,6.53
2023-02-11T23:56:38.956Z,6.56
2023-02-11T23:59:23.780Z,6.59
